Time;durP1;ratioP1;P1;durP2;ratioP2;P2;SDS_P1;SDS_P2;PMS_P1;PMS_P2;Temp;Humidity;BMP_temperature;BMP_pressure;BME280_temperature;BME280_humidity;BME280_pressure;Samples;Min_cycle;Max_cycle;Signal;HPM_P1;HPM_P2
2022/08/23 00:01:53;;;;;;;9.40;4.55;;;28.20;62.60;;;;;;5073643;28;20025;-73
2022/08/23 00:04:25;;;;;;;9.80;3.28;;;28.20;62.60;;;;;;5073353;28;20090;-73
2022/08/23 00:06:54;;;;;;;6.47;3.17;;;28.20;62.60;;;;;;5073575;28;20048;-73
2022/08/23 00:09:21;;;;;;;5.97;3.22;;;28.20;62.60;;;;;;5073309;28;20036;-73
2022/08/23 00:11:52;;;;;;;8.68;3.50;;;28.20;62.60;;;;;;5073248;28;20113;-73
2022/08/23 00:14:26;;;;;;;13.25;3.60;;;28.30;62.60;;;;;;5073304;28;20040;-73
2022/08/23 00:16:53;;;;;;;10.05;4.05;;;28.10;62.60;;;;;;5070779;28;20048;-74
2022/08/23 00:19:21;;;;;;;8.98;3.72;;;28.20;62.70;;;;;;5073117;28;20385;-73
2022/08/23 00:21:49;;;;;;;6.25;3.45;;;28.20;62.60;;;;;;5088557;28;20056;-73
2022/08/23 00:24:17;;;;;;;10.27;3.17;;;28.20;62.60;;;;;;5071526;28;20033;-73
2022/08/23 00:26:58;;;;;;;8.30;3.80;;;28.20;62.60;;;;;;5072760;28;20090;-74
2022/08/23 00:29:31;;;;;;;7.05;3.72;;;28.30;62.60;;;;;;5072706;28;20490;-73
2022/08/23 00:31:58;;;;;;;4.82;3.30;;;28.30;62.50;;;;;;5072793;28;20040;-73
2022/08/23 00:34:25;;;;;;;9.15;3.47;;;28.10;62.60;;;;;;5072608;28;20154;-74
2022/08/23 00:36:52;;;;;;;5.68;3.60;;;28.20;62.60;;;;;;5055025;28;20082;-73
2022/08/23 00:39:19;;;;;;;7.35;3.35;;;28.10;62.60;;;;;;5071363;28;20406;-73
2022/08/23 00:41:47;;;;;;;6.28;3.30;;;28.20;62.60;;;;;;5072440;28;20432;-73
2022/08/23 00:50:10;;;;;;;9.93;3.80;;;28.20;62.70;;;;;;5010339;28;20112;-73
2022/08/23 00:52:54;;;;;;;5.88;3.47;;;28.10;62.70;;;;;;5010159;28;20042;-73
2022/08/23 00:55:21;;;;;;;7.70;3.25;;;28.10;62.80;;;;;;5010305;28;20030;-73
2022/08/23 00:57:47;;;;;;;5.65;3.30;;;28.10;62.90;;;;;;5009961;28;20854;-73
2022/08/23 01:00:14;;;;;;;9.18;3.70;;;28.10;63.00;;;;;;5010339;28;20506;-73
2022/08/23 01:02:42;;;;;;;7.28;3.28;;;28.00;62.90;;;;;;5010114;28;20034;-73
2022/08/23 01:05:09;;;;;;;9.63;3.88;;;28.10;62.90;;;;;;5010328;28;20057;-73
2022/08/23 01:07:35;;;;;;;5.75;3.63;;;28.00;62.90;;;;;;4977740;28;20451;-73
2022/08/23 01:10:08;;;;;;;7.80;3.50;;;28.20;62.90;;;;;;5010090;28;20105;-73
2022/08/23 01:12:45;;;;;;;7.97;2.95;;;28.20;62.90;;;;;;4993754;28;20044;-73
2022/08/23 01:15:35;;;;;;;6.65;3.55;;;28.00;62.90;;;;;;4993728;28;20069;-73
2022/08/23 01:18:12;;;;;;;7.18;3.13;;;28.20;62.90;;;;;;5009922;28;20121;-72
2022/08/23 01:21:00;;;;;;;9.25;3.22;;;28.20;62.90;;;;;;5009935;28;20138;-73
2022/08/23 01:23:44;;;;;;;9.85;3.70;;;28.20;62.90;;;;;;5025181;28;20049;-73
2022/08/23 01:26:16;;;;;;;6.10;3.40;;;28.20;62.90;;;;;;5054321;28;20111;-73
2022/08/23 01:28:42;;;;;;;4.88;3.35;;;28.20;62.80;;;;;;5055820;28;20048;-73
2022/08/23 01:31:10;;;;;;;11.48;3.67;;;28.20;62.80;;;;;;5070761;28;20045;-73
2022/08/23 01:33:37;;;;;;;12.25;4.05;;;28.20;62.80;;;;;;5070673;28;20048;-73
2022/08/23 01:36:07;;;;;;;5.63;3.47;;;28.20;62.80;;;;;;5071952;28;20055;-73
2022/08/23 01:38:34;;;;;;;6.07;3.50;;;28.20;62.80;;;;;;5070160;28;20076;-73
2022/08/23 01:41:00;;;;;;;6.90;3.70;;;28.20;62.80;;;;;;5071761;28;20058;-74
2022/08/23 01:43:27;;;;;;;7.22;3.63;;;28.20;62.90;;;;;;5070384;28;20032;-73
2022/08/23 01:45:54;;;;;;;5.72;3.35;;;28.10;62.80;;;;;;5070655;28;20036;-73
2022/08/23 01:48:23;;;;;;;13.05;4.10;;;28.10;62.90;;;;;;5071750;28;20033;-73
2022/08/23 01:50:49;;;;;;;9.23;3.78;;;28.10;62.90;;;;;;5068891;28;20513;-73
2022/08/23 01:53:16;;;;;;;7.50;4.05;;;28.00;62.90;;;;;;5068935;28;20057;-73
2022/08/23 01:55:47;;;;;;;4.25;3.38;;;28.10;62.90;;;;;;5069145;28;20045;-73
2022/08/23 01:58:15;;;;;;;7.30;3.30;;;28.00;62.90;;;;;;5052350;28;20033;-73
2022/08/23 02:00:43;;;;;;;6.32;3.47;;;28.00;63.10;;;;;;5068924;28;20044;-74
2022/08/23 02:03:12;;;;;;;6.65;3.70;;;28.10;63.20;;;;;;5068866;28;20544;-74
2022/08/23 02:05:40;;;;;;;7.63;3.60;;;28.10;63.10;;;;;;5068751;28;20539;-73
2022/08/23 02:10:54;;;;;;;6.05;3.60;;;28.10;63.10;;;;;;5068718;28;20493;-73
2022/08/23 02:13:20;;;;;;;8.55;3.88;;;28.10;63.10;;;;;;5052004;28;20036;-74
2022/08/23 02:15:50;;;;;;;6.10;4.03;;;28.10;63.00;;;;;;5052011;28;20127;-73
2022/08/23 02:18:19;;;;;;;6.40;4.03;;;28.10;63.00;;;;;;5052382;28;20385;-73
2022/08/23 02:20:47;;;;;;;6.53;3.70;;;28.20;63.00;;;;;;5068903;28;20123;-74
2022/08/23 02:23:15;;;;;;;6.55;3.75;;;28.00;62.90;;;;;;5086861;28;20044;-73
2022/08/23 02:25:42;;;;;;;5.68;3.65;;;28.20;62.90;;;;;;5070113;28;20117;-73
2022/08/23 02:28:09;;;;;;;6.38;3.72;;;28.30;63.00;;;;;;5028463;28;20042;-74
2022/08/23 02:30:37;;;;;;;7.43;3.85;;;28.20;63.00;;;;;;5012089;28;20145;-73
2022/08/23 02:33:03;;;;;;;6.25;3.97;;;28.10;63.00;;;;;;5012532;28;20060;-73
2022/08/23 02:35:32;;;;;;;6.95;3.40;;;28.20;63.00;;;;;;5028686;28;20034;-73
2022/08/23 02:38:02;;;;;;;9.10;4.13;;;28.20;62.90;;;;;;5028876;28;20029;-73
2022/08/23 02:40:29;;;;;;;8.88;3.80;;;28.20;62.90;;;;;;5012358;28;20441;-73
2022/08/23 02:42:55;;;;;;;5.93;4.35;;;28.20;62.90;;;;;;5028592;28;20049;-73
2022/08/23 02:45:22;;;;;;;7.88;4.20;;;28.20;62.80;;;;;;4995577;28;20390;-73
2022/08/23 02:47:48;;;;;;;11.25;4.63;;;28.20;62.90;;;;;;5012215;28;20033;-73
2022/08/23 02:50:20;;;;;;;8.13;4.03;;;28.10;62.80;;;;;;5029477;28;20037;-73
2022/08/23 02:52:46;;;;;;;9.48;4.78;;;28.00;62.90;;;;;;5015657;28;20474;-74
2022/08/23 02:55:13;;;;;;;9.98;4.80;;;28.10;62.90;;;;;;5015891;28;20041;-73
2022/08/23 02:57:39;;;;;;;7.57;4.72;;;28.10;62.90;;;;;;5032195;28;20588;-74
2022/08/23 03:00:08;;;;;;;6.90;4.53;;;28.10;63.00;;;;;;5015743;28;20045;-73
2022/08/23 03:02:36;;;;;;;10.13;4.22;;;28.00;62.90;;;;;;5032064;28;20038;-73
2022/08/23 03:05:04;;;;;;;6.25;4.70;;;28.00;63.10;;;;;;5043467;28;20044;-73
2022/08/23 03:07:31;;;;;;;14.85;4.57;;;28.00;63.10;;;;;;5073374;28;20037;-73
2022/08/23 03:09:58;;;;;;;9.02;4.78;;;28.10;63.10;;;;;;5056475;28;20078;-74
2022/08/23 03:12:28;;;;;;;6.43;3.92;;;28.10;63.10;;;;;;5073149;28;20040;-73
2022/08/23 03:14:56;;;;;;;10.13;5.28;;;28.10;63.10;;;;;;5073053;28;20120;-73
2022/08/23 03:17:22;;;;;;;6.50;4.97;;;28.00;63.10;;;;;;5072967;28;20028;-74
2022/08/23 03:19:51;;;;;;;10.13;5.32;;;28.10;63.20;;;;;;5055433;28;20052;-73
2022/08/23 03:22:17;;;;;;;9.65;4.90;;;28.10;63.10;;;;;;5073219;28;20028;-73
2022/08/23 03:24:44;;;;;;;7.70;4.70;;;28.10;63.10;;;;;;5072732;28;20173;-73
2022/08/23 03:27:11;;;;;;;9.40;4.78;;;28.00;63.00;;;;;;5073139;28;20472;-73
2022/08/23 03:29:38;;;;;;;6.45;4.40;;;28.10;63.00;;;;;;5072554;28;20394;-74
2022/08/23 03:32:05;;;;;;;12.90;4.93;;;28.10;63.10;;;;;;5072738;28;20035;-73
2022/08/23 03:34:35;;;;;;;13.68;5.57;;;28.00;63.10;;;;;;5072486;28;20040;-73
2022/08/23 03:37:01;;;;;;;7.80;4.45;;;28.00;63.00;;;;;;5073083;28;20140;-73
2022/08/23 03:39:27;;;;;;;10.77;4.40;;;28.10;63.00;;;;;;5055873;28;20044;-73
2022/08/23 03:41:56;;;;;;;14.13;5.45;;;28.20;63.00;;;;;;5072735;28;20032;-73
2022/08/23 03:44:22;;;;;;;7.05;5.07;;;28.10;62.90;;;;;;5072459;28;20435;-73
2022/08/23 03:46:49;;;;;;;12.32;5.60;;;28.10;62.90;;;;;;5072391;28;20119;-73
2022/08/23 03:49:16;;;;;;;12.23;5.75;;;28.10;62.90;;;;;;5089254;28;20039;-73
2022/08/23 03:51:46;;;;;;;9.05;4.85;;;28.00;63.00;;;;;;5072407;28;20089;-73
2022/08/23 03:54:12;;;;;;;10.13;5.05;;;28.10;62.90;;;;;;5056055;28;20485;-73
2022/08/23 03:56:50;;;;;;;9.20;5.10;;;28.10;63.00;;;;;;5072246;28;20047;-73
2022/08/23 03:59:16;;;;;;;11.32;4.55;;;28.00;62.90;;;;;;5089366;28;20060;-74
2022/08/23 04:01:43;;;;;;;12.43;5.10;;;28.00;62.90;;;;;;5071704;28;20068;-73
2022/08/23 04:04:09;;;;;;;11.13;5.00;;;28.00;62.70;;;;;;5073421;28;20085;-74
2022/08/23 04:06:43;;;;;;;9.77;5.65;;;28.20;62.60;;;;;;5072162;28;20087;-73
2022/08/23 04:09:11;;;;;;;5.75;5.05;;;28.10;62.40;;;;;;5072080;28;20028;-73
2022/08/23 04:11:38;;;;;;;10.15;4.90;;;28.10;62.30;;;;;;5071533;28;20032;-73
2022/08/23 04:14:05;;;;;;;10.32;5.25;;;28.10;62.20;;;;;;5088582;28;20041;-73
2022/08/23 04:16:36;;;;;;;6.55;4.68;;;28.20;62.10;;;;;;5073133;28;20056;-73
2022/08/23 04:19:07;;;;;;;7.68;4.78;;;28.20;62.10;;;;;;5072178;28;20029;-73
2022/08/23 04:21:36;;;;;;;9.30;4.88;;;28.30;62.20;;;;;;5071645;28;20032;-73
2022/08/23 04:24:03;;;;;;;6.65;5.05;;;28.10;62.30;;;;;;5071914;28;20062;-73
2022/08/23 04:26:30;;;;;;;11.38;5.88;;;28.10;62.30;;;;;;5013624;28;20099;-73
2022/08/23 04:28:56;;;;;;;11.02;5.32;;;28.10;62.50;;;;;;5013847;28;20122;-73
2022/08/23 04:31:25;;;;;;;8.57;5.13;;;28.00;62.70;;;;;;5030601;28;20041;-73
2022/08/23 04:33:55;;;;;;;7.40;5.80;;;28.10;62.80;;;;;;5014075;28;20041;-73
2022/08/23 04:36:22;;;;;;;7.82;4.85;;;28.00;62.70;;;;;;5030401;28;20068;-73
2022/08/23 04:38:48;;;;;;;7.60;5.00;;;28.20;62.60;;;;;;5013901;28;20069;-73
2022/08/23 04:44:00;;;;;;;5.40;3.90;;;28.10;62.50;;;;;;5030318;28;20041;-72
2022/08/23 04:46:28;;;;;;;7.18;4.28;;;28.20;62.50;;;;;;5013922;28;20045;-73
2022/08/23 04:48:58;;;;;;;10.45;5.00;;;28.20;62.30;;;;;;5030001;28;20505;-73
2022/08/23 04:51:24;;;;;;;10.30;5.13;;;28.30;62.20;;;;;;5029902;28;20049;-73
2022/08/23 04:53:51;;;;;;;9.02;3.75;;;28.40;62.20;;;;;;5006678;28;20132;-73
2022/08/23 04:56:36;;;;;;;7.30;4.68;;;28.30;62.10;;;;;;4997726;28;20037;-73
2022/08/23 04:59:03;;;;;;;9.88;4.75;;;28.30;62.00;;;;;;5016965;28;20041;-73
2022/08/23 05:01:30;;;;;;;14.05;5.10;;;28.40;61.90;;;;;;5033019;28;20043;-73
2022/08/23 05:03:56;;;;;;;11.40;5.45;;;28.40;61.80;;;;;;5032848;28;20040;-73
2022/08/23 05:06:25;;;;;;;13.05;4.97;;;28.60;61.80;;;;;;5033051;28;20048;-73
2022/08/23 05:08:52;;;;;;;9.95;5.80;;;28.50;61.80;;;;;;5049553;28;20136;-73
2022/08/23 05:11:19;;;;;;;10.32;6.18;;;28.40;61.50;;;;;;5033085;28;20110;-73
2022/08/23 05:13:47;;;;;;;16.58;7.80;;;28.50;61.50;;;;;;5032088;28;20083;-73
2022/08/23 05:16:13;;;;;;;11.73;7.57;;;28.50;61.40;;;;;;5032916;28;20270;-73
2022/08/23 05:18:47;;;;;;;12.35;6.85;;;28.70;61.40;;;;;;5032718;28;20045;-73
2022/08/23 05:21:16;;;;;;;9.18;6.28;;;28.60;61.30;;;;;;5033084;28;20044;-73
2022/08/23 05:23:43;;;;;;;10.27;5.22;;;28.60;61.20;;;;;;5033243;28;20037;-73
2022/08/23 05:26:16;;;;;;;8.40;5.05;;;28.60;61.20;;;;;;5029014;28;20049;-73
2022/08/23 05:28:44;;;;;;;7.70;4.88;;;28.60;61.10;;;;;;5029119;28;20042;-73
2022/08/23 05:31:19;;;;;;;11.82;4.68;;;28.60;61.00;;;;;;5012765;28;20076;-73
2022/08/23 05:33:51;;;;;;;8.07;5.07;;;28.70;61.00;;;;;;5029716;28;20120;-73
2022/08/23 05:36:25;;;;;;;4.65;4.05;;;28.60;61.00;;;;;;5029347;28;20091;-73
2022/08/23 05:38:52;;;;;;;12.90;4.80;;;28.70;60.90;;;;;;5029563;28;20045;-73
2022/08/23 05:41:20;;;;;;;13.43;4.55;;;28.60;60.90;;;;;;5012854;28;20511;-73
2022/08/23 05:43:47;;;;;;;7.80;4.40;;;28.70;60.80;;;;;;5029381;28;20033;-73
2022/08/23 05:46:18;;;;;;;8.25;4.75;;;28.70;60.80;;;;;;5012788;28;20176;-73
2022/08/23 05:48:50;;;;;;;9.88;4.45;;;28.70;60.70;;;;;;5013117;28;20037;-73
2022/08/23 05:51:28;;;;;;;7.03;4.47;;;28.60;60.70;;;;;;5012713;28;20060;-73
2022/08/23 05:53:57;;;;;;;12.13;3.97;;;28.70;60.70;;;;;;5029324;28;20041;-73
2022/08/23 05:56:30;;;;;;;8.70;4.53;;;28.70;60.60;;;;;;5028911;28;20037;-73
2022/08/23 05:58:59;;;;;;;9.25;4.60;;;28.70;60.60;;;;;;5012992;28;20045;-73
2022/08/23 06:01:28;;;;;;;8.25;5.32;;;28.70;60.50;;;;;;5029258;28;20041;-73
2022/08/23 06:04:04;;;;;;;10.82;5.47;;;28.80;60.50;;;;;;5053827;28;20049;-73
2022/08/23 06:06:31;;;;;;;9.90;4.57;;;28.80;60.40;;;;;;5053586;28;20024;-73
2022/08/23 06:08:57;;;;;;;11.10;4.60;;;28.80;60.40;;;;;;5071490;28;20033;-73
2022/08/23 06:11:26;;;;;;;8.35;3.88;;;28.80;60.40;;;;;;5052543;28;20127;-71
2022/08/23 06:13:56;;;;;;;5.53;4.07;;;28.90;60.30;;;;;;5071534;28;20066;-73
2022/08/23 06:16:37;;;;;;;17.08;4.55;;;28.80;60.30;;;;;;5070113;28;20056;-73
2022/08/23 06:19:05;;;;;;;4.72;3.72;;;28.80;60.30;;;;;;5053349;28;20504;-73
2022/08/23 06:22:04;;;;;;;8.05;3.70;;;28.70;60.30;;;;;;5070005;28;20028;-73
2022/08/23 06:24:35;;;;;;;8.30;3.83;;;28.80;60.30;;;;;;5086916;28;20035;-73
2022/08/23 06:27:12;;;;;;;7.28;3.65;;;28.80;60.20;;;;;;5073744;28;20071;-73
2022/08/23 06:29:39;;;;;;;8.88;4.35;;;28.80;60.20;;;;;;5073693;28;20139;-73
2022/08/23 06:32:24;;;;;;;8.95;3.55;;;28.70;60.20;;;;;;5075234;28;20465;-73
2022/08/23 06:35:08;;;;;;;8.25;3.97;;;28.90;60.20;;;;;;5074832;28;20028;-74
2022/08/23 06:37:46;;;;;;;7.60;3.65;;;28.90;60.30;;;;;;5089929;28;20029;-73
2022/08/23 06:40:47;;;;;;;6.78;3.50;;;28.80;60.30;;;;;;5073352;28;20032;-74
2022/08/23 06:43:39;;;;;;;6.63;4.03;;;28.90;60.20;;;;;;5012251;28;20128;-74
2022/08/23 06:46:27;;;;;;;12.80;4.07;;;28.80;60.20;;;;;;4992551;28;20176;-73
2022/08/23 06:48:55;;;;;;;11.90;3.70;;;28.90;60.20;;;;;;4976530;28;20046;-74
2022/08/23 06:51:25;;;;;;;10.95;4.10;;;28.80;60.20;;;;;;4993086;28;20050;-73
2022/08/23 06:54:14;;;;;;;8.30;4.10;;;28.90;60.20;;;;;;4979323;28;20132;-73
2022/08/23 06:56:59;;;;;;;9.43;4.03;;;28.80;60.10;;;;;;4992744;28;20486;-73
2022/08/23 06:59:32;;;;;;;7.60;3.88;;;28.90;60.10;;;;;;4976826;28;20102;-73
2022/08/23 07:02:30;;;;;;;6.70;3.03;;;28.90;60.10;;;;;;4897407;29;20151;-73
2022/08/23 07:04:57;;;;;;;6.22;3.35;;;28.90;60.00;;;;;;4897020;29;20045;-73
2022/08/23 07:07:29;;;;;;;;;;;28.80;60.00;;;;;;4897366;29;20118;-73
2022/08/23 07:09:56;;;;;;;10.82;3.85;;;28.90;60.00;;;;;;4896894;29;20452;-73
2022/08/23 07:12:22;;;;;;;11.82;3.78;;;28.90;60.00;;;;;;4896841;29;20131;-73
2022/08/23 07:14:48;;;;;;;11.43;3.30;;;28.80;60.10;;;;;;4896944;29;20057;-73
2022/08/23 07:17:14;;;;;;;9.60;3.65;;;28.90;60.10;;;;;;4880982;29;20052;-73
2022/08/23 07:19:42;;;;;;;8.32;4.03;;;28.70;60.10;;;;;;4900716;29;20131;-74
2022/08/23 07:22:09;;;;;;;15.23;4.47;;;28.80;60.10;;;;;;4918783;29;20039;-73
2022/08/23 07:24:36;;;;;;;11.32;4.28;;;28.60;60.10;;;;;;4972641;28;20044;-73
2022/08/23 07:27:05;;;;;;;20.58;3.38;;;28.80;60.20;;;;;;4975998;28;20065;-74
2022/08/23 07:29:34;;;;;;;10.32;4.57;;;28.80;60.20;;;;;;4976069;28;20051;-74
2022/08/23 07:32:00;;;;;;;15.75;4.03;;;28.70;60.20;;;;;;4959847;28;20391;-73
2022/08/23 07:34:27;;;;;;;13.38;3.85;;;28.70;60.20;;;;;;4976300;28;20045;-73
2022/08/23 07:36:53;;;;;;;26.95;4.22;;;28.70;60.10;;;;;;4942304;28;20038;-73
2022/08/23 07:39:21;;;;;;;15.15;3.70;;;28.80;60.20;;;;;;5074002;28;20029;-74
2022/08/23 07:41:48;;;;;;;7.50;2.75;;;28.80;60.20;;;;;;5072706;28;20047;-73
2022/08/23 07:44:16;;;;;;;13.75;4.05;;;28.70;60.20;;;;;;5072686;28;20028;-74
2022/08/23 07:46:45;;;;;;;27.52;4.78;;;28.80;60.10;;;;;;5072590;28;20071;-74
2022/08/23 07:49:14;;;;;;;15.68;4.07;;;28.80;60.20;;;;;;5072397;28;20420;-74
2022/08/23 07:51:48;;;;;;;14.57;3.97;;;28.80;60.20;;;;;;5073658;28;20438;-74
2022/08/23 07:54:17;;;;;;;17.05;4.15;;;28.70;60.20;;;;;;5089111;28;20032;-74
2022/08/23 07:56:57;;;;;;;20.50;4.55;;;28.90;60.20;;;;;;5072409;28;20032;-73
2022/08/23 07:59:34;;;;;;;19.00;4.05;;;28.80;60.20;;;;;;5073862;28;20040;-73
2022/08/23 08:02:09;;;;;;;12.73;3.97;;;28.80;60.10;;;;;;5056859;28;20039;-74
2022/08/23 08:04:36;;;;;;;37.25;5.15;;;28.80;60.10;;;;;;5072351;28;20033;-73
2022/08/23 08:07:03;;;;;;;18.38;5.18;;;28.80;60.10;;;;;;5072030;28;20032;-74
2022/08/23 08:09:31;;;;;;;19.10;4.95;;;28.70;60.10;;;;;;5072065;28;20032;-73
2022/08/23 08:11:57;;;;;;;16.48;3.97;;;28.80;60.10;;;;;;5072201;28;20086;-74
2022/08/23 08:14:27;;;;;;;24.17;5.93;;;28.80;60.10;;;;;;5072060;28;20091;-73
2022/08/23 08:16:57;;;;;;;40.88;6.15;;;28.80;60.20;;;;;;5071862;28;20039;-73
2022/08/23 08:19:58;;;;;;;21.20;4.50;;;28.80;60.20;;;;;;5030841;28;20062;-74
2022/08/23 08:23:00;;;;;;;29.88;4.90;;;28.70;60.20;;;;;;4972003;28;20035;-74
2022/08/23 08:25:26;;;;;;;26.58;4.78;;;28.80;60.20;;;;;;4955761;28;20046;-73
2022/08/23 08:27:53;;;;;;;23.98;4.88;;;28.60;60.20;;;;;;4955507;28;20078;-73
2022/08/23 08:30:19;;;;;;;24.77;3.80;;;28.70;60.30;;;;;;4971523;28;20862;-73
2022/08/23 08:32:45;;;;;;;29.73;4.72;;;28.80;60.30;;;;;;4939683;28;20058;-74
2022/08/23 08:35:12;;;;;;;18.15;3.92;;;28.60;60.30;;;;;;4955589;28;20452;-74
2022/08/23 08:37:38;;;;;;;26.38;5.28;;;28.70;60.40;;;;;;4955312;28;20051;-73
2022/08/23 08:40:06;;;;;;;25.98;4.90;;;28.70;60.40;;;;;;4955610;28;20039;-73
2022/08/23 08:42:37;;;;;;;23.52;4.65;;;28.70;60.30;;;;;;4971650;28;20118;-73
2022/08/23 08:45:10;;;;;;;36.25;6.03;;;28.60;60.30;;;;;;4971793;28;20047;-73
2022/08/23 08:47:56;;;;;;;23.25;6.00;;;28.90;60.40;;;;;;4971266;28;20492;-74
2022/08/23 08:50:46;;;;;;;29.10;4.85;;;28.70;60.30;;;;;;4955331;28;20086;-74
2022/08/23 08:53:22;;;;;;;47.85;6.05;;;28.80;60.40;;;;;;4958844;28;20136;-73
2022/08/23 08:56:20;;;;;;;28.50;3.65;;;28.70;60.30;;;;;;5002516;28;20139;-73
2022/08/23 08:58:52;;;;;;;28.75;5.10;;;28.70;60.40;;;;;;5054656;28;20032;-73
2022/08/23 09:01:22;;;;;;;26.40;5.13;;;28.80;60.30;;;;;;5071200;28;20384;-74
2022/08/23 09:03:51;;;;;;;20.15;3.85;;;28.80;60.40;;;;;;5054402;28;20032;-74
2022/08/23 09:06:30;;;;;;;21.88;4.80;;;28.80;60.30;;;;;;5054611;28;20032;-74
2022/08/23 09:09:05;;;;;;;31.17;4.95;;;28.80;60.30;;;;;;5071132;28;20420;-73
2022/08/23 09:11:49;;;;;;;25.40;4.63;;;28.80;60.30;;;;;;5072039;28;20040;-74
2022/08/23 09:14:34;;;;;;;21.70;4.72;;;28.80;60.30;;;;;;5071039;28;20507;-73
2022/08/23 09:17:08;;;;;;;40.33;5.38;;;28.80;60.30;;;;;;5071297;28;20520;-74
2022/08/23 09:19:37;;;;;;;30.02;4.88;;;28.70;60.30;;;;;;5070897;28;20036;-74
2022/08/23 09:22:15;;;;;;;40.05;5.20;;;28.80;60.30;;;;;;5071985;28;20024;-74
2022/08/23 09:24:42;;;;;;;29.05;4.75;;;28.70;60.30;;;;;;5053737;28;20081;-74
2022/08/23 09:27:14;;;;;;;;;;;28.70;60.30;;;;;;5054617;28;20036;-74
2022/08/23 09:29:57;;;;;;;34.05;5.40;;;28.60;60.30;;;;;;5071953;28;19928;-74
2022/08/23 09:32:36;;;;;;;32.53;5.78;;;28.90;60.40;;;;;;5071890;28;20051;-73
2022/08/23 09:35:12;;;;;;;41.30;5.15;;;28.70;60.40;;;;;;5054116;28;20044;-73
2022/08/23 09:38:01;;;;;;;33.15;5.65;;;28.70;60.40;;;;;;5070518;28;20033;-73
2022/08/23 09:40:45;;;;;;;46.58;6.63;;;28.70;60.40;;;;;;5053882;28;20028;-73
2022/08/23 09:43:16;;;;;;;40.33;5.30;;;28.60;60.50;;;;;;5053797;28;20044;-73
2022/08/23 09:45:49;;;;;;;33.95;5.60;;;28.80;60.50;;;;;;5071862;28;20051;-73
2022/08/23 09:48:34;;;;;;;37.03;5.85;;;28.60;60.50;;;;;;5053613;28;20485;-73
2022/08/23 09:51:39;;;;;;;34.85;4.80;;;28.50;60.50;;;;;;5053790;28;20040;-74
2022/08/23 09:54:34;;;;;;;45.40;5.18;;;28.70;60.50;;;;;;4973886;28;20050;-74
2022/08/23 09:57:12;;;;;;;33.60;6.50;;;28.60;60.50;;;;;;4989942;28;20034;-73
2022/08/23 09:59:40;;;;;;;37.67;5.93;;;28.70;60.60;;;;;;4989712;28;20498;-74
2022/08/23 10:02:34;;;;;;;40.33;5.32;;;28.70;60.50;;;;;;4993645;28;20060;-73
2022/08/23 10:05:14;;;;;;;37.67;5.77;;;28.70;60.60;;;;;;4947652;28;20049;-74
2022/08/23 10:08:00;;;;;;;39.23;4.40;;;28.70;60.60;;;;;;4974109;28;20324;-73
2022/08/23 10:10:34;;;;;;;38.33;5.20;;;28.70;60.60;;;;;;4974144;28;20050;-73
2022/08/23 10:13:04;;;;;;;33.92;5.65;;;28.70;60.50;;;;;;4974682;28;20110;-73
2022/08/23 10:16:00;;;;;;;41.15;5.78;;;28.80;60.60;;;;;;4958258;28;20221;-74
2022/08/23 10:18:55;;;;;;;38.15;6.32;;;28.70;60.50;;;;;;4974236;28;20121;-74
2022/08/23 10:21:26;;;;;;;35.03;5.50;;;28.90;60.50;;;;;;4957957;28;20204;-74
2022/08/23 10:24:10;;;;;;;37.30;6.03;;;28.60;60.50;;;;;;4974139;28;20093;-73
2022/08/23 10:26:54;;;;;;;22.02;4.40;;;28.90;60.50;;;;;;4974259;28;20078;-73
2022/08/23 10:29:39;;;;;;;22.10;5.00;;;28.80;60.50;;;;;;4984203;28;20097;-74
2022/08/23 10:32:14;;;;;;;29.65;4.93;;;28.70;60.50;;;;;;5055929;28;20156;-74
2022/08/23 10:35:19;;;;;;;42.40;5.25;;;28.70;60.50;;;;;;5055922;28;20040;-73
2022/08/23 10:38:08;;;;;;;34.42;5.53;;;28.70;60.50;;;;;;5056056;28;20033;-74
2022/08/23 10:40:40;;;;;;;22.95;4.53;;;28.60;60.50;;;;;;5090770;28;20131;-74
2022/08/23 10:43:19;;;;;;;45.15;6.47;;;28.70;60.60;;;;;;5075009;28;20028;-74
2022/08/23 10:45:48;;;;;;;40.85;7.75;;;28.60;60.60;;;;;;5090637;28;20366;-74
2022/08/23 10:48:37;;;;;;;;;;;28.80;60.50;;;;;;5074145;28;20109;-73
2022/08/23 10:51:14;;;;;;;33.58;5.95;;;28.60;60.60;;;;;;5056968;28;19916;-73
2022/08/23 10:53:59;;;;;;;35.90;6.47;;;28.60;60.70;;;;;;5073680;28;20024;-73
2022/08/23 10:56:27;;;;;;;26.65;4.05;;;28.70;60.70;;;;;;5090634;28;20024;-73
2022/08/23 10:59:24;;;;;;;34.47;4.90;;;28.70;60.70;;;;;;5073427;28;20127;-73
2022/08/23 11:02:04;;;;;;;35.55;5.15;;;28.60;60.70;;;;;;5072109;28;20037;-74
2022/08/23 11:04:48;;;;;;;30.65;4.60;;;28.70;60.70;;;;;;5073284;28;20124;-74
2022/08/23 11:07:30;;;;;;;31.80;4.47;;;28.70;60.70;;;;;;5073389;28;20376;-73
2022/08/23 11:10:24;;;;;;;23.98;3.70;;;28.60;60.70;;;;;;5090126;28;20029;-73
2022/08/23 11:13:11;;;;;;;31.05;5.25;;;28.80;60.70;;;;;;5089950;28;20484;-74
2022/08/23 11:15:42;;;;;;;37.08;5.28;;;28.70;60.70;;;;;;5073270;28;20061;-74
2022/08/23 11:18:25;;;;;;;45.92;5.78;;;28.70;60.70;;;;;;5073099;28;20491;-73
2022/08/23 11:20:52;;;;;;;32.88;6.13;;;28.80;60.70;;;;;;5072967;28;20032;-73
2022/08/23 11:23:42;;;;;;;39.55;5.63;;;28.70;60.70;;;;;;5073243;28;20035;-74
2022/08/23 11:26:32;;;;;;;36.65;5.60;;;28.80;60.70;;;;;;5072995;28;20029;-74
2022/08/23 11:29:06;;;;;;;34.92;5.80;;;28.80;60.60;;;;;;5072665;28;20063;-74
2022/08/23 11:31:55;;;;;;;48.15;5.68;;;28.80;60.60;;;;;;5072720;28;20048;-73
2022/08/23 11:34:41;;;;;;;42.20;5.72;;;28.70;60.70;;;;;;5054865;28;20131;-73
2022/08/23 11:37:17;;;;;;;49.13;6.18;;;28.70;60.70;;;;;;5071440;28;20033;-74
2022/08/23 11:39:58;;;;;;;34.65;5.30;;;28.50;60.70;;;;;;5071214;28;20123;-74
2022/08/23 11:42:36;;;;;;;30.63;5.47;;;28.80;60.70;;;;;;5071419;28;20047;-74
2022/08/23 11:45:38;;;;;;;41.97;5.57;;;28.40;60.70;;;;;;5071262;28;20049;-73
2022/08/23 11:48:12;;;;;;;35.55;5.45;;;28.70;60.70;;;;;;5071348;28;20044;-73
2022/08/23 11:51:00;;;;;;;40.22;5.60;;;28.70;60.70;;;;;;5071048;28;20389;-74
2022/08/23 11:53:56;;;;;;;40.22;5.97;;;28.60;60.70;;;;;;5071276;28;20075;-73
2022/08/23 11:56:39;;;;;;;26.10;4.68;;;28.70;60.80;;;;;;5070924;28;20609;-74
2022/08/23 11:59:33;;;;;;;21.60;4.85;;;28.60;60.80;;;;;;5071141;28;20430;-74
2022/08/23 12:02:30;;;;;;;43.35;5.10;;;28.60;60.80;;;;;;5070967;28;20512;-73
2022/08/23 12:05:00;;;;;;;35.60;4.63;;;28.60;60.80;;;;;;4978084;28;20523;-74
2022/08/23 12:08:16;;;;;;;28.00;4.65;;;28.70;60.80;;;;;;4991764;28;20518;-74
2022/08/23 12:10:42;;;;;;;44.00;5.82;;;28.80;60.90;;;;;;4991390;28;20565;-74
2022/08/23 12:13:18;;;;;;;32.42;5.60;;;28.80;60.90;;;;;;4991688;28;20034;-73
2022/08/23 12:16:10;;;;;;;32.03;5.47;;;28.80;60.90;;;;;;4991680;28;20066;-74
2022/08/23 12:18:52;;;;;;;42.08;4.80;;;28.70;60.90;;;;;;4952665;29;20050;-74
2022/08/23 12:21:38;;;;;;;36.10;6.78;;;28.80;60.90;;;;;;4920826;29;20515;-73
2022/08/23 12:24:22;;;;;;;45.85;5.40;;;28.70;60.90;;;;;;4952148;28;20063;-73
2022/08/23 12:27:02;;;;;;;35.83;4.75;;;28.70;60.80;;;;;;4952504;29;20073;-74
2022/08/23 12:29:52;;;;;;;42.47;5.43;;;28.80;60.80;;;;;;4952281;29;20544;-74
2022/08/23 12:32:42;;;;;;;34.58;6.45;;;28.80;60.90;;;;;;4952388;29;20126;-74
2022/08/23 12:35:40;;;;;;;34.03;5.88;;;28.70;60.80;;;;;;4955221;28;20054;-74
2022/08/23 12:38:33;;;;;;;48.33;6.38;;;28.70;60.80;;;;;;4972082;28;20514;-74
2022/08/23 12:41:31;;;;;;;36.20;5.32;;;28.80;60.80;;;;;;4976122;28;20042;-74
2022/08/23 12:44:04;;;;;;;35.20;5.18;;;28.80;60.80;;;;;;5010272;28;20054;-73
2022/08/23 12:46:40;;;;;;;40.03;5.57;;;28.80;60.80;;;;;;5010555;28;20517;-73
2022/08/23 12:49:09;;;;;;;42.42;5.50;;;28.80;60.80;;;;;;5010367;28;20093;-74
2022/08/23 12:51:48;;;;;;;32.05;5.38;;;28.60;60.80;;;;;;5010395;28;20041;-73
2022/08/23 12:54:17;;;;;;;26.83;4.57;;;28.70;60.80;;;;;;5010418;28;20034;-74
2022/08/23 12:56:53;;;;;;;43.28;6.40;;;28.70;60.80;;;;;;5069156;28;20045;-74
2022/08/23 12:59:35;;;;;;;50.30;7.78;;;28.60;60.80;;;;;;5072326;28;20051;-74
2022/08/23 13:02:04;;;;;;;38.15;5.28;;;28.70;60.90;;;;;;5072336;28;20037;-74
2022/08/23 13:04:34;;;;;;;42.13;5.20;;;28.80;60.90;;;;;;5072384;28;20043;-74
2022/08/23 13:07:05;;;;;;;32.20;6.18;;;28.60;60.90;;;;;;5072199;28;20499;-73
2022/08/23 13:09:37;;;;;;;31.63;5.75;;;28.60;60.90;;;;;;5072233;28;20056;-74
2022/08/23 13:12:05;;;;;;;37.00;5.97;;;28.60;61.00;;;;;;5054310;28;20044;-74
2022/08/23 13:14:51;;;;;;;34.35;5.40;;;28.70;60.90;;;;;;5072280;28;20051;-74
2022/08/23 13:17:25;;;;;;;40.58;5.15;;;28.70;61.00;;;;;;5071988;28;20111;-74
2022/08/23 13:20:00;;;;;;;30.15;4.88;;;28.70;60.90;;;;;;5071881;28;20123;-74
2022/08/23 13:22:30;;;;;;;36.35;5.45;;;28.80;60.90;;;;;;5072152;28;20033;-73
2022/08/23 13:24:59;;;;;;;28.23;5.13;;;28.80;60.90;;;;;;5072092;28;20420;-73
2022/08/23 13:27:30;;;;;;;24.73;4.90;;;28.80;60.90;;;;;;5071834;28;20119;-74